Valley Peak, Santa Cruz Island Reserve, California Weather observations

Data are for 10 minute period ending at time listed.
 Day   Time   Solar   Ave.   Ave.  Ave.  Vector  Max.   Baro.   Total    
  of    of     Rad.   Air    Rel.  Wind   Wind   Wind  Press.  Precip.   
Year   Day            Temp.  Hum.  Speed  Dir.   Gust                    
2015   (PST)  Kw/m2    F      %     mph   deg.    mph    mb.     in.     
-------------------------------------------------------------------------
 187    5:00   0.00   55.3   100    0.5   291     1.3   967.4    0.00 
 187    5:10   0.00   55.3   100    1.3    61     4.0   967.6    0.00 
 187    5:20   0.00   55.4   100    2.9    26     4.8   967.5    0.00 
 187    5:30   0.00   55.1   100    3.5     4     5.3   967.6    0.00 
 187    5:40   0.01   55.1   100    4.2    24     6.0   967.7    0.00 
 187    5:50   0.02   55.3   100    3.9    37     5.6   967.9    0.00 
 187    6:00   0.03   55.7   100    3.0    46     4.6   967.8    0.00 
 187    6:10   0.04   56.0   100    1.4    74     2.8   967.9    0.00 
 187    6:20   0.04   56.0   100    1.1    29     3.4   967.8    0.00 
 187    6:30   0.06   56.4   100    1.6    90     3.7   967.8    0.00 
 187    6:40   0.08   56.4   100    1.3   162     3.0   967.8    0.00 
 187    6:50   0.09   56.2   100    4.2   204     8.1   967.9    0.00 
 187    7:00   0.11   56.1   100    5.7   209     8.3   967.9    0.00 
 187    7:10   0.12   56.2   100    5.7   196    10.1   967.9    0.00 
 187    7:20   0.12   56.4   100    4.9   210     9.1   968.0    0.00 
 187    7:30   0.12   56.5   100    5.3   222     8.5   968.1    0.00 
 187    7:40   0.14   56.4   100    5.2   235     7.3   968.1    0.00 
 187    7:50   0.17   56.2   100    5.5   246     7.6   968.1    0.00 
 187    8:00   0.20   56.2   100    4.1   234     7.1   968.1    0.00 
 187    8:10   0.18   56.6   100    1.8   252     5.3   968.2    0.00 
 187    8:20   0.23   57.3   100    1.4   352     4.1   968.4    0.00 
 187    8:30   0.22   57.5   100    1.6   347     4.7   968.4    0.00 
 187    8:40   0.25   58.4   100    1.8    55     5.0   968.4    0.00 
 187    8:50   0.27   59.2    99    1.3    32     4.5   968.4    0.00 
 187    9:00   0.33   58.9    98    3.8    14     7.1   968.3    0.01 
 187    9:10   0.31   59.7    96    4.6    51     9.5   968.2    0.00 
 187    9:20   0.29   60.6    91    5.4    40    10.8   968.3    0.00 
 187    9:30   0.28   60.8    88    4.3    52     8.0   968.2    0.00 
 187    9:40   0.30   60.4    88    5.9    39     9.9   968.2    0.00 
 187    9:50   0.31   60.8    88    6.6    43    11.3   968.3    0.00 
 187   10:00   0.34   60.7    88    7.3    34    12.7   968.2    0.00 
 187   10:10   0.38   61.0    88    7.2    40    12.6   968.2    0.00 
 187   10:20   0.36   61.7    85    6.4    42    11.9   968.4    0.00 
 187   10:30   0.38   62.1    84    7.2    42    12.5   968.3    0.00 
 187   10:40   0.38   61.7    85    7.8    38    12.1   968.2    0.00 
 187   10:50   0.35   61.4    85    7.2    38    12.3   968.2    0.00 
 187   11:00   0.33   61.8    84    5.9    40    11.0   968.2    0.00 
 187   11:10   0.34   62.7    81    5.1    43     9.6   968.2    0.00 
 187   11:20   0.36   62.8    81    3.5    41     6.1   968.2    0.00 
 187   11:30   0.45   63.6    79    2.4    71     5.2   968.1    0.00 
 187   11:40   0.43   64.9    76    2.0    72     6.7   968.1    0.00 
 187   11:50   0.42   64.9    76    2.6    63     4.5   968.1    0.00 
 187   12:00   0.41   65.4    75    3.6    80     6.4   968.1    0.00 
 187   12:10   0.34   65.5    76    2.7   107     5.3   967.9    0.00 
 187   12:20   0.36   65.4    76    3.4    98     6.8   967.9    0.00 
 187   12:30   0.45   66.1    74    2.6    81     6.4   967.8    0.00 
 187   12:40   0.52   65.5    74    2.2    33     6.4   967.7    0.00 
 187   12:50   0.57   67.0    71    4.3    50     9.3   967.6    0.00 
 187   13:00   0.62   68.0    69    4.7    50     8.8   967.5    0.00 
 187   13:10   0.65   67.6    70    3.6    49     7.5   967.3    0.00 
 187   13:20   0.54   67.7    70    3.6    67     7.1   967.1    0.00 
 187   13:30   0.75   67.3    71    4.7    54     9.8   967.1    0.00 
 187   13:40   0.66   68.8    68    3.9    70     8.1   967.0    0.00 
 187   13:50   0.60   68.3    69    2.7    56     5.8   966.9    0.00 
 187   14:00   0.85   68.6    68    3.1    69     6.4   966.8    0.00 
 187   14:10   0.92   69.2    67    3.5    59     8.5   966.7    0.00 
 187   14:20   0.80   70.3    64    3.9    60     8.3   966.7    0.00 
 187   14:30   0.76   69.8    66    3.5    57     7.5   966.6    0.00 
 187   14:40   0.81   69.8    65    3.2    45     8.9   966.5    0.00 
 187   14:50   0.78   68.1    68    5.4    41    10.6   966.4    0.00 
 187   15:00   0.75   68.3    68    7.6    42    12.1   966.2    0.00 
 187   15:10   0.72   67.7    69    7.5    36    12.4   966.1    0.00 
 187   15:20   0.69   67.7    69    7.4    37    11.8   966.0    0.00 
 187   15:30   0.66   66.8    71    9.8    28    13.2   965.8    0.00 
 187   15:40   0.63   65.3    75    9.4    29    12.3   965.6    0.00 
 187   15:50   0.60   66.0    73    8.4    30    11.2   965.5    0.00 
 187   16:00   0.56   66.5    72   10.8    29    14.3   965.3    0.00 
 187   16:10   0.53   66.2    72   11.5    27    14.2   965.2    0.00 
 187   16:20   0.50   66.3    73   10.1    26    13.4   965.1    0.00 
 187   16:30   0.47   67.6    70    6.2    22     9.8   965.1    0.00 
 187   16:40   0.43   69.1    67    3.8    35     6.5   965.1    0.00 
 187   16:50   0.40   72.7    61    3.1   116     6.7   965.1    0.00 
 187   17:00   0.36   72.6    61    2.8   130     5.8   965.0    0.00 
 187   17:10   0.33   73.7    59    2.4   114     4.9   965.0    0.00 
 187   17:20   0.30   74.8    57    1.7    58     3.4   965.0    0.00 
 187   17:30   0.26   74.3    58    1.9   136     4.4   965.0    0.00 
 187   17:40   0.23   70.7    65    3.3   196     6.1   964.9    0.00 
 187   17:50   0.20   67.7    70    5.3   206    10.2   964.9    0.00 
 187   18:00   0.16   66.6    69    8.4   231    11.0   964.9    0.00 
 187   18:10   0.13   65.1    72   10.1   234    12.4   964.9    0.00 
 187   18:20   0.10   62.9    77   10.8   235    12.8   964.9    0.00 
 187   18:30   0.08   62.0    79    7.7   235    10.5   964.9    0.00 
 187   18:40   0.05   61.8    80    4.2   232     7.2   965.0    0.00 
 187   18:50   0.03   63.6    76    1.6   271     3.1   965.1    0.00 
 187   19:00   0.01   64.6    74    3.5    33     5.1   965.0    0.00 
 187   19:10   0.00   61.8    81    4.6    41     5.8   965.0    0.00 
 187   19:20   0.00   59.4    88    3.7    76     5.1   965.2    0.00 
 187   19:30   0.00   59.4    87    4.7   118     6.2   965.2    0.00 
 187   19:40   0.00   59.1    87    5.0   128     7.9   965.2    0.00 
 187   19:50   0.00   59.3    86    1.8   281     7.2   965.4    0.00 
 187   20:00   0.00   58.5    89    0.9    36     3.0   965.5    0.00 
 187   20:10   0.00   58.4    89    2.3   104     3.7   965.5    0.00 
 187   20:20   0.00   58.2    91    1.4   134     3.4   965.6    0.00 
 187   20:30   0.00   58.1    93    3.4   168     4.7   965.8    0.00 
 187   20:40   0.00   57.6    95    3.8   183     5.2   965.9    0.00 
 187   20:50   0.00   57.4    96    4.3   181     4.9   966.0    0.00 
 187   21:00   0.00   57.1    97    4.2   171     5.0   966.1    0.00 
 187   21:10   0.00   56.9    97    2.9   171     4.0   966.2    0.00 
 187   21:20   0.00   57.1    96    3.8   173     4.6   966.3    0.00 
 187   21:30   0.00   56.8    97    3.9   140     5.2   966.3    0.00 
 187   21:40   0.00   56.8    97    5.6   137     7.0   966.4    0.00 
 187   21:50   0.00   56.9    98    6.8   130     8.8   966.4    0.00 
 187   22:00   0.00   57.1    98    5.5   128     7.5   966.4    0.00 
 187   22:10   0.00   57.1    99    5.0   120     6.6   966.3    0.00 
 187   22:20   0.00   57.0    99    2.0    91     3.8   966.3    0.00 
 187   22:30   0.00   57.0    99    2.2   105     4.5   966.3    0.00 
 187   22:40   0.00   57.0    99    3.9   136     6.9   966.3    0.00 
 187   22:50   0.00   57.1    99    4.7   122     7.5   966.3    0.00 
 187   23:00   0.00   57.1    99    4.6   119     7.0   966.4    0.00 
 187   23:10   0.00   57.0    99    3.7    68     5.6   966.4    0.00 
 187   23:20   0.00   56.7    99    3.5    41     4.8   966.4    0.00 
 187   23:30   0.00   56.7    97    3.2   111     6.1   966.4    0.00 
 187   23:40   0.00   56.8    98    5.6   116     7.5   966.4    0.00 
 187   23:50   0.00   56.8    98    5.5   147     7.4   966.4    0.00 
 188    0:00   0.00   56.9    99    6.7   156     8.6   966.3    0.00 
 188    0:10   0.00   56.9    99    6.6   149     8.3   966.3    0.00 
 188    0:20   0.00   57.0    99    4.9   150     6.3   966.3    0.00 
 188    0:30   0.00   56.9    99    5.3   133     6.7   966.2    0.00 
 188    0:40   0.00   56.9    99    1.3   166     3.3   966.1    0.00 
 188    0:50   0.00   56.9    99    4.5   130     6.3   966.2    0.00 
 188    1:00   0.00   56.9    99    4.5   140     6.9   966.1    0.00 
 188    1:10   0.00   57.0   100    4.3   150     6.7   966.1    0.00 
 188    1:20   0.00   57.1   100    4.5   148     6.6   966.0    0.00 
 188    1:30   0.00   57.3   100    3.7   152     6.4   966.0    0.00 
 188    1:40   0.00   57.4   100    6.6   166     8.6   965.9    0.00 
 188    1:50   0.00   57.4   100    6.7   168     8.6   965.9    0.00 
 188    2:00   0.00   57.4   100    6.4   170     8.1   965.9    0.00 
 188    2:10   0.00   57.5   100    5.4   148     8.4   965.8    0.00 
 188    2:20   0.00   57.6   100    3.6   155     7.2   965.8    0.00 
 188    2:30   0.00   57.2   100    4.6   198     6.3   965.9    0.00 
 188    2:40   0.00   57.0   100    4.4   178     6.4   965.8    0.00 
 188    2:50   0.00   57.1   100    4.3   191     6.7   965.8    0.00 
 188    3:00   0.00   56.9   100    3.6   176     5.6   965.8    0.00 
 188    3:10   0.00   57.0   100    3.9   134     5.9   965.8    0.00 
 188    3:20   0.00   57.1   100    3.6   125     5.3   965.6    0.00 
 188    3:30   0.00   57.1   100    3.5   132     6.1   965.7    0.00 
 188    3:40   0.00   57.1   100    3.4   127     5.1   965.6    0.00 
 188    3:50   0.00   56.9   100    3.2   145     5.3   965.6    0.00 
 188    4:00   0.00   56.7   100    2.1   151     3.6   965.6    0.00 
 188    4:10   0.00   56.5   100    1.0   152     1.9   965.6    0.00 
 188    4:20   0.00   56.5   100    2.5   205     4.2   965.7    0.00 
 188    4:30   0.00   56.4   100    4.7   228     7.3   965.8    0.00 
 188    4:40   0.00   56.4   100    5.6   214     6.8   965.8    0.00 
 188    4:50   0.00   56.6   100    5.4   213     6.9   965.9    0.00 

Return to Valley Peak, Santa Cruz Island Reserve graphs page.


Western Regional Climate Center,wrcc@dri.edu